This is the latest recevied weather packets stored in our database for station/object M8FSI-13. If no packets are shown the sender has not sent any weather packets the latest 10 day(s).
| Time | Temp. | Humidity | Pressure | Rain* | Wind** | Luminosity | Snow |
|---|---|---|---|---|---|---|---|
| 1777290319 | 19.44° C | 39% | 1024.4 hPa | 0 mm | - | - | - |
| 1777284920 | 17.22° C | 44% | 1025.1 hPa | 0 mm | - | - | - |
| 1777281919 | 16.67° C | 42% | 1025.2 hPa | 0 mm | - | - | - |
| 1777273533 | 12.22° C | 70% | 1025.6 hPa | 0 mm | - | - | - |
| 1777272333 | 11.11° C | 74% | 1025.7 hPa | 0 mm | - | - | - |
| 1777263340 | 7.22° C | 82% | 1025 hPa | 0 mm | - | - | - |
| 1777259121 | 7.22° C | 77% | 1025.1 hPa | 0 mm | - | - | - |
| 1777258533 | 7.78° C | 76% | 1025.1 hPa | 0 mm | - | - | - |
| 1777250718 | 10.56° C | 71% | 1025.1 hPa | 0 mm | - | - | - |
| 1777243535 | 11.67° C | 71% | 1025 hPa | 0 mm | - | - | - |
| 1777236321 | 12.22° C | 71% | 1024.8 hPa | 0 mm | - | - | - |
| 1777232720 | 12.78° C | 67% | 1024.6 hPa | 0 mm | - | - | - |
| 1777227934 | 14.44° C | 57% | 1024.2 hPa | 0 mm | - | - | - |
| 1777224321 | 15° C | 55% | 1024.2 hPa | 0 mm | - | - | - |
| 1777223139 | 15.56° C | 56% | 1024.4 hPa | 0 mm | - | - | - |
| 1777220719 | 16.67° C | 45% | 1024.5 hPa | 0 mm | - | - | - |
| 1777218963 | 16.67° C | 49% | 1024.6 hPa | 0 mm | - | - | - |
| 1777218320 | 16.67° C | 48% | 1024.5 hPa | 0 mm | - | - | - |
| 1777217119 | 16.11° C | 45% | 1024.6 hPa | 0 mm | - | - | - |
| 1777215924 | 16.67° C | 43% | 1024.8 hPa | 0 mm | - | - | - |
| 1777208719 | 16.11° C | 42% | 1025.4 hPa | 0 mm | - | - | - |
| 1777206934 | 16.11° C | 43% | 1025.6 hPa | 0 mm | - | - | - |
| 1777204520 | 16.11° C | 41% | 1025.7 hPa | 0 mm | - | - | - |
| 1777202119 | 16.11° C | 45% | 1025.9 hPa | 0 mm | - | - | - |
| 1777198519 | 15.56° C | 42% | 1025.9 hPa | 0 mm | - | - | - |
* Rain latest hour (hover to see other rain measurements)
** Current wind speed in m/s (hover to see current wind gust speed)